sensor_id;sensor_type;location;lat;lon;timestamp;P1;durP1;ratioP1;P2;durP2;ratioP2
37483;SDS011;23337;52.212;9.926;2023-07-22T00:01:11;5.97;;;5.23;;
37483;SDS011;23337;52.212;9.926;2023-07-22T00:03:37;5.50;;;4.97;;
37483;SDS011;23337;52.212;9.926;2023-07-22T00:06:03;6.83;;;4.73;;
37483;SDS011;23337;52.212;9.926;2023-07-22T00:08:30;6.27;;;5.30;;
37483;SDS011;23337;52.212;9.926;2023-07-22T00:10:56;6.10;;;4.83;;
37483;SDS011;23337;52.212;9.926;2023-07-22T00:13:22;6.90;;;6.23;;
37483;SDS011;23337;52.212;9.926;2023-07-22T00:15:48;6.70;;;5.00;;
37483;SDS011;23337;52.212;9.926;2023-07-22T00:18:15;6.47;;;5.83;;
37483;SDS011;23337;52.212;9.926;2023-07-22T00:20:41;7.60;;;6.63;;
37483;SDS011;23337;52.212;9.926;2023-07-22T00:23:07;7.17;;;6.40;;
37483;SDS011;23337;52.212;9.926;2023-07-22T00:25:35;7.30;;;6.23;;
37483;SDS011;23337;52.212;9.926;2023-07-22T00:28:01;7.70;;;6.43;;
37483;SDS011;23337;52.212;9.926;2023-07-22T00:30:27;8.17;;;7.10;;
37483;SDS011;23337;52.212;9.926;2023-07-22T00:32:53;7.57;;;6.67;;
37483;SDS011;23337;52.212;9.926;2023-07-22T00:35:20;10.87;;;7.10;;
37483;SDS011;23337;52.212;9.926;2023-07-22T00:37:46;10.47;;;7.23;;
37483;SDS011;23337;52.212;9.926;2023-07-22T00:40:12;9.77;;;6.90;;
37483;SDS011;23337;52.212;9.926;2023-07-22T00:42:39;8.73;;;7.67;;
37483;SDS011;23337;52.212;9.926;2023-07-22T00:45:05;8.87;;;7.57;;
37483;SDS011;23337;52.212;9.926;2023-07-22T00:47:33;8.63;;;7.60;;
37483;SDS011;23337;52.212;9.926;2023-07-22T00:50:00;10.57;;;7.63;;
37483;SDS011;23337;52.212;9.926;2023-07-22T00:52:27;9.20;;;8.23;;
37483;SDS011;23337;52.212;9.926;2023-07-22T00:54:53;9.17;;;7.43;;
37483;SDS011;23337;52.212;9.926;2023-07-22T00:57:20;8.77;;;7.33;;
37483;SDS011;23337;52.212;9.926;2023-07-22T00:59:46;11.97;;;8.53;;
37483;SDS011;23337;52.212;9.926;2023-07-22T01:02:12;8.37;;;7.47;;
37483;SDS011;23337;52.212;9.926;2023-07-22T01:04:38;12.63;;;8.50;;
37483;SDS011;23337;52.212;9.926;2023-07-22T01:07:04;9.23;;;8.23;;
37483;SDS011;23337;52.212;9.926;2023-07-22T01:09:38;11.57;;;9.47;;
37483;SDS011;23337;52.212;9.926;2023-07-22T01:12:05;10.00;;;7.93;;
37483;SDS011;23337;52.212;9.926;2023-07-22T01:14:35;8.97;;;8.00;;
37483;SDS011;23337;52.212;9.926;2023-07-22T01:17:02;9.70;;;8.40;;
37483;SDS011;23337;52.212;9.926;2023-07-22T01:19:28;8.53;;;7.63;;
37483;SDS011;23337;52.212;9.926;2023-07-22T01:21:55;11.83;;;8.50;;
37483;SDS011;23337;52.212;9.926;2023-07-22T01:24:22;11.00;;;9.23;;
37483;SDS011;23337;52.212;9.926;2023-07-22T01:26:48;9.23;;;7.80;;
37483;SDS011;23337;52.212;9.926;2023-07-22T01:29:14;9.93;;;8.70;;
37483;SDS011;23337;52.212;9.926;2023-07-22T01:31:40;10.73;;;8.73;;
37483;SDS011;23337;52.212;9.926;2023-07-22T01:34:06;12.23;;;9.10;;
37483;SDS011;23337;52.212;9.926;2023-07-22T01:36:32;8.87;;;7.63;;
37483;SDS011;23337;52.212;9.926;2023-07-22T01:38:58;10.90;;;9.50;;
37483;SDS011;23337;52.212;9.926;2023-07-22T01:41:25;9.00;;;7.47;;
37483;SDS011;23337;52.212;9.926;2023-07-22T01:43:51;9.70;;;8.00;;
37483;SDS011;23337;52.212;9.926;2023-07-22T01:46:17;10.97;;;9.07;;
37483;SDS011;23337;52.212;9.926;2023-07-22T01:48:43;10.73;;;8.00;;
37483;SDS011;23337;52.212;9.926;2023-07-22T01:51:09;9.10;;;7.83;;
37483;SDS011;23337;52.212;9.926;2023-07-22T01:53:35;12.37;;;9.07;;
37483;SDS011;23337;52.212;9.926;2023-07-22T01:56:01;10.70;;;8.60;;
37483;SDS011;23337;52.212;9.926;2023-07-22T01:58:27;11.00;;;9.03;;
37483;SDS011;23337;52.212;9.926;2023-07-22T02:00:53;9.67;;;7.53;;
37483;SDS011;23337;52.212;9.926;2023-07-22T02:03:19;11.33;;;8.47;;
37483;SDS011;23337;52.212;9.926;2023-07-22T02:05:45;9.80;;;7.93;;
37483;SDS011;23337;52.212;9.926;2023-07-22T02:08:11;9.53;;;7.43;;
37483;SDS011;23337;52.212;9.926;2023-07-22T02:10:37;9.60;;;8.00;;
37483;SDS011;23337;52.212;9.926;2023-07-22T02:13:03;9.27;;;7.90;;
37483;SDS011;23337;52.212;9.926;2023-07-22T02:15:29;11.57;;;8.07;;
37483;SDS011;23337;52.212;9.926;2023-07-22T02:17:55;9.43;;;8.23;;
37483;SDS011;23337;52.212;9.926;2023-07-22T02:20:21;12.27;;;7.37;;
37483;SDS011;23337;52.212;9.926;2023-07-22T02:22:47;8.17;;;7.33;;
37483;SDS011;23337;52.212;9.926;2023-07-22T02:25:13;9.67;;;7.00;;
37483;SDS011;23337;52.212;9.926;2023-07-22T02:27:40;9.50;;;7.43;;
37483;SDS011;23337;52.212;9.926;2023-07-22T02:30:06;11.40;;;6.70;;
37483;SDS011;23337;52.212;9.926;2023-07-22T02:32:35;11.23;;;6.40;;
37483;SDS011;23337;52.212;9.926;2023-07-22T02:35:01;9.83;;;6.90;;
37483;SDS011;23337;52.212;9.926;2023-07-22T02:37:27;9.87;;;7.33;;
37483;SDS011;23337;52.212;9.926;2023-07-22T02:39:53;11.00;;;6.77;;
37483;SDS011;23337;52.212;9.926;2023-07-22T02:42:20;9.23;;;6.90;;
37483;SDS011;23337;52.212;9.926;2023-07-22T02:44:46;9.80;;;7.50;;
37483;SDS011;23337;52.212;9.926;2023-07-22T02:47:13;11.17;;;7.97;;
37483;SDS011;23337;52.212;9.926;2023-07-22T02:49:39;8.80;;;6.43;;
37483;SDS011;23337;52.212;9.926;2023-07-22T02:52:05;11.00;;;8.07;;
37483;SDS011;23337;52.212;9.926;2023-07-22T02:54:32;9.10;;;7.73;;
37483;SDS011;23337;52.212;9.926;2023-07-22T02:56:57;9.80;;;7.37;;
37483;SDS011;23337;52.212;9.926;2023-07-22T02:59:24;11.53;;;8.03;;
37483;SDS011;23337;52.212;9.926;2023-07-22T03:01:50;8.90;;;7.03;;
37483;SDS011;23337;52.212;9.926;2023-07-22T03:04:16;12.40;;;6.97;;
37483;SDS011;23337;52.212;9.926;2023-07-22T03:06:41;10.93;;;7.93;;
37483;SDS011;23337;52.212;9.926;2023-07-22T03:09:07;9.30;;;7.30;;
37483;SDS011;23337;52.212;9.926;2023-07-22T03:11:33;11.17;;;7.77;;
37483;SDS011;23337;52.212;9.926;2023-07-22T03:13:59;10.93;;;8.33;;
37483;SDS011;23337;52.212;9.926;2023-07-22T03:16:27;9.83;;;8.20;;
37483;SDS011;23337;52.212;9.926;2023-07-22T03:18:53;10.00;;;7.53;;
37483;SDS011;23337;52.212;9.926;2023-07-22T03:21:19;13.67;;;7.33;;
37483;SDS011;23337;52.212;9.926;2023-07-22T03:23:44;11.50;;;7.50;;
37483;SDS011;23337;52.212;9.926;2023-07-22T03:26:10;8.57;;;7.10;;
37483;SDS011;23337;52.212;9.926;2023-07-22T03:28:36;9.30;;;7.67;;
37483;SDS011;23337;52.212;9.926;2023-07-22T03:31:02;9.53;;;7.00;;
37483;SDS011;23337;52.212;9.926;2023-07-22T03:33:29;11.07;;;7.53;;
37483;SDS011;23337;52.212;9.926;2023-07-22T03:35:55;9.97;;;7.53;;
37483;SDS011;23337;52.212;9.926;2023-07-22T03:38:21;10.80;;;7.53;;
37483;SDS011;23337;52.212;9.926;2023-07-22T03:40:47;10.20;;;7.37;;
37483;SDS011;23337;52.212;9.926;2023-07-22T03:43:13;10.37;;;7.90;;
37483;SDS011;23337;52.212;9.926;2023-07-22T03:45:39;9.87;;;7.30;;
37483;SDS011;23337;52.212;9.926;2023-07-22T03:48:05;10.80;;;7.13;;
37483;SDS011;23337;52.212;9.926;2023-07-22T03:50:31;9.43;;;7.10;;
37483;SDS011;23337;52.212;9.926;2023-07-22T03:52:56;14.97;;;8.03;;
37483;SDS011;23337;52.212;9.926;2023-07-22T03:55:23;11.10;;;7.30;;
37483;SDS011;23337;52.212;9.926;2023-07-22T03:57:49;10.47;;;7.00;;
37483;SDS011;23337;52.212;9.926;2023-07-22T04:00:15;10.27;;;7.37;;
37483;SDS011;23337;52.212;9.926;2023-07-22T04:02:41;9.53;;;7.57;;
37483;SDS011;23337;52.212;9.926;2023-07-22T04:05:08;7.83;;;6.97;;
37483;SDS011;23337;52.212;9.926;2023-07-22T04:07:34;10.50;;;7.17;;
37483;SDS011;23337;52.212;9.926;2023-07-22T04:10:00;8.13;;;6.93;;
37483;SDS011;23337;52.212;9.926;2023-07-22T04:12:26;8.90;;;6.77;;
37483;SDS011;23337;52.212;9.926;2023-07-22T04:14:52;9.17;;;6.87;;
37483;SDS011;23337;52.212;9.926;2023-07-22T04:17:18;10.37;;;7.07;;
37483;SDS011;23337;52.212;9.926;2023-07-22T04:19:44;10.27;;;6.57;;
37483;SDS011;23337;52.212;9.926;2023-07-22T04:22:10;8.13;;;6.67;;
37483;SDS011;23337;52.212;9.926;2023-07-22T04:24:36;10.60;;;7.63;;
37483;SDS011;23337;52.212;9.926;2023-07-22T04:27:03;7.67;;;6.13;;
37483;SDS011;23337;52.212;9.926;2023-07-22T04:29:29;10.00;;;7.07;;
37483;SDS011;23337;52.212;9.926;2023-07-22T04:31:59;9.70;;;6.80;;
37483;SDS011;23337;52.212;9.926;2023-07-22T04:34:28;11.07;;;6.67;;
37483;SDS011;23337;52.212;9.926;2023-07-22T04:36:54;7.97;;;6.73;;
37483;SDS011;23337;52.212;9.926;2023-07-22T04:39:20;8.63;;;6.10;;
37483;SDS011;23337;52.212;9.926;2023-07-22T04:41:46;7.67;;;5.93;;
37483;SDS011;23337;52.212;9.926;2023-07-22T04:44:11;10.00;;;6.87;;
37483;SDS011;23337;52.212;9.926;2023-07-22T04:46:37;11.07;;;6.90;;
37483;SDS011;23337;52.212;9.926;2023-07-22T04:49:03;8.43;;;7.07;;
37483;SDS011;23337;52.212;9.926;2023-07-22T04:51:29;8.40;;;6.73;;
37483;SDS011;23337;52.212;9.926;2023-07-22T04:53:56;9.50;;;7.00;;
37483;SDS011;23337;52.212;9.926;2023-07-22T04:56:22;11.73;;;6.57;;
37483;SDS011;23337;52.212;9.926;2023-07-22T04:58:48;8.60;;;6.60;;
37483;SDS011;23337;52.212;9.926;2023-07-22T05:01:15;7.53;;;5.87;;
37483;SDS011;23337;52.212;9.926;2023-07-22T05:03:41;8.03;;;6.20;;
37483;SDS011;23337;52.212;9.926;2023-07-22T05:06:07;11.87;;;6.73;;
37483;SDS011;23337;52.212;9.926;2023-07-22T05:08:33;9.97;;;7.03;;
37483;SDS011;23337;52.212;9.926;2023-07-22T05:11:00;7.83;;;7.03;;
37483;SDS011;23337;52.212;9.926;2023-07-22T05:13:25;7.23;;;6.33;;
37483;SDS011;23337;52.212;9.926;2023-07-22T05:15:51;9.40;;;6.13;;
37483;SDS011;23337;52.212;9.926;2023-07-22T05:18:17;8.97;;;6.83;;
37483;SDS011;23337;52.212;9.926;2023-07-22T05:20:43;11.97;;;6.80;;
37483;SDS011;23337;52.212;9.926;2023-07-22T05:23:11;8.43;;;6.33;;
37483;SDS011;23337;52.212;9.926;2023-07-22T05:25:37;6.83;;;5.33;;
37483;SDS011;23337;52.212;9.926;2023-07-22T05:28:03;7.97;;;6.23;;
37483;SDS011;23337;52.212;9.926;2023-07-22T05:30:29;10.73;;;6.80;;
37483;SDS011;23337;52.212;9.926;2023-07-22T05:32:55;8.83;;;6.17;;
37483;SDS011;23337;52.212;9.926;2023-07-22T05:35:21;10.63;;;6.97;;
37483;SDS011;23337;52.212;9.926;2023-07-22T05:37:47;9.57;;;6.10;;
37483;SDS011;23337;52.212;9.926;2023-07-22T05:40:14;10.13;;;6.63;;
37483;SDS011;23337;52.212;9.926;2023-07-22T05:42:40;9.67;;;6.63;;
37483;SDS011;23337;52.212;9.926;2023-07-22T05:45:06;12.67;;;6.97;;
37483;SDS011;23337;52.212;9.926;2023-07-22T05:47:32;7.70;;;5.87;;
37483;SDS011;23337;52.212;9.926;2023-07-22T05:49:58;9.63;;;6.73;;
37483;SDS011;23337;52.212;9.926;2023-07-22T05:52:24;12.03;;;7.87;;
37483;SDS011;23337;52.212;9.926;2023-07-22T05:54:50;9.57;;;6.80;;
37483;SDS011;23337;52.212;9.926;2023-07-22T05:57:16;9.20;;;6.90;;
37483;SDS011;23337;52.212;9.926;2023-07-22T05:59:42;10.33;;;7.90;;
37483;SDS011;23337;52.212;9.926;2023-07-22T06:02:08;8.47;;;7.10;;
37483;SDS011;23337;52.212;9.926;2023-07-22T06:04:35;9.80;;;7.17;;
37483;SDS011;23337;52.212;9.926;2023-07-22T06:07:01;10.63;;;7.37;;
37483;SDS011;23337;52.212;9.926;2023-07-22T06:09:27;9.57;;;7.13;;
37483;SDS011;23337;52.212;9.926;2023-07-22T06:11:53;11.63;;;7.77;;
37483;SDS011;23337;52.212;9.926;2023-07-22T06:14:19;12.17;;;7.17;;
37483;SDS011;23337;52.212;9.926;2023-07-22T06:16:45;9.57;;;6.90;;
37483;SDS011;23337;52.212;9.926;2023-07-22T06:19:11;10.63;;;6.80;;
37483;SDS011;23337;52.212;9.926;2023-07-22T06:21:37;12.97;;;8.13;;
37483;SDS011;23337;52.212;9.926;2023-07-22T06:24:03;10.73;;;7.37;;
37483;SDS011;23337;52.212;9.926;2023-07-22T06:26:29;13.03;;;8.00;;
37483;SDS011;23337;52.212;9.926;2023-07-22T06:28:55;11.07;;;8.27;;
37483;SDS011;23337;52.212;9.926;2023-07-22T06:31:21;11.60;;;8.88;;
37483;SDS011;23337;52.212;9.926;2023-07-22T06:33:47;10.50;;;8.33;;
37483;SDS011;23337;52.212;9.926;2023-07-22T06:36:13;11.10;;;8.53;;
37483;SDS011;23337;52.212;9.926;2023-07-22T06:38:41;14.13;;;8.33;;
37483;SDS011;23337;52.212;9.926;2023-07-22T06:41:07;12.53;;;9.33;;
37483;SDS011;23337;52.212;9.926;2023-07-22T06:43:33;14.37;;;9.13;;
37483;SDS011;23337;52.212;9.926;2023-07-22T06:45:59;14.13;;;8.90;;
37483;SDS011;23337;52.212;9.926;2023-07-22T06:48:25;11.00;;;9.33;;
37483;SDS011;23337;52.212;9.926;2023-07-22T06:50:51;13.10;;;9.63;;
37483;SDS011;23337;52.212;9.926;2023-07-22T06:53:17;10.40;;;8.43;;
37483;SDS011;23337;52.212;9.926;2023-07-22T06:55:50;12.73;;;9.30;;
37483;SDS011;23337;52.212;9.926;2023-07-22T06:58:16;10.10;;;8.13;;
37483;SDS011;23337;52.212;9.926;2023-07-22T07:00:42;13.83;;;9.37;;
37483;SDS011;23337;52.212;9.926;2023-07-22T07:03:08;12.93;;;9.37;;
37483;SDS011;23337;52.212;9.926;2023-07-22T07:05:34;11.33;;;8.80;;
37483;SDS011;23337;52.212;9.926;2023-07-22T07:08:00;13.87;;;8.57;;
37483;SDS011;23337;52.212;9.926;2023-07-22T07:10:25;10.60;;;8.97;;
37483;SDS011;23337;52.212;9.926;2023-07-22T07:12:51;12.00;;;8.90;;
37483;SDS011;23337;52.212;9.926;2023-07-22T07:15:17;10.67;;;9.03;;
37483;SDS011;23337;52.212;9.926;2023-07-22T07:17:43;10.87;;;8.53;;
37483;SDS011;23337;52.212;9.926;2023-07-22T07:20:09;10.87;;;8.33;;
37483;SDS011;23337;52.212;9.926;2023-07-22T07:22:35;15.57;;;10.07;;
37483;SDS011;23337;52.212;9.926;2023-07-22T07:25:01;11.43;;;9.03;;
37483;SDS011;23337;52.212;9.926;2023-07-22T07:27:27;12.27;;;8.93;;
37483;SDS011;23337;52.212;9.926;2023-07-22T07:29:53;12.97;;;8.47;;
37483;SDS011;23337;52.212;9.926;2023-07-22T07:32:19;11.30;;;8.07;;
37483;SDS011;23337;52.212;9.926;2023-07-22T07:34:46;11.40;;;9.10;;
37483;SDS011;23337;52.212;9.926;2023-07-22T07:37:12;10.80;;;9.23;;
37483;SDS011;23337;52.212;9.926;2023-07-22T07:39:38;12.33;;;8.60;;
37483;SDS011;23337;52.212;9.926;2023-07-22T07:42:04;10.30;;;8.73;;
37483;SDS011;23337;52.212;9.926;2023-07-22T07:44:30;12.17;;;7.83;;
37483;SDS011;23337;52.212;9.926;2023-07-22T07:46:56;12.67;;;9.03;;
37483;SDS011;23337;52.212;9.926;2023-07-22T07:49:22;11.67;;;8.37;;
37483;SDS011;23337;52.212;9.926;2023-07-22T07:51:48;12.17;;;9.23;;
37483;SDS011;23337;52.212;9.926;2023-07-22T07:54:14;11.50;;;7.93;;
37483;SDS011;23337;52.212;9.926;2023-07-22T07:56:40;12.87;;;8.90;;
37483;SDS011;23337;52.212;9.926;2023-07-22T07:59:06;11.50;;;7.57;;
37483;SDS011;23337;52.212;9.926;2023-07-22T08:01:34;8.70;;;7.03;;
37483;SDS011;23337;52.212;9.926;2023-07-22T08:04:02;8.33;;;7.03;;
37483;SDS011;23337;52.212;9.926;2023-07-22T08:06:28;9.73;;;7.70;;
37483;SDS011;23337;52.212;9.926;2023-07-22T08:08:54;9.17;;;7.07;;
37483;SDS011;23337;52.212;9.926;2023-07-22T08:11:20;8.33;;;7.07;;
37483;SDS011;23337;52.212;9.926;2023-07-22T08:13:45;10.00;;;8.27;;
37483;SDS011;23337;52.212;9.926;2023-07-22T08:16:12;12.73;;;8.40;;
37483;SDS011;23337;52.212;9.926;2023-07-22T08:18:38;11.27;;;8.20;;
37483;SDS011;23337;52.212;9.926;2023-07-22T08:21:05;10.57;;;8.97;;
37483;SDS011;23337;52.212;9.926;2023-07-22T08:23:35;11.23;;;8.30;;
37483;SDS011;23337;52.212;9.926;2023-07-22T08:26:01;11.30;;;8.97;;
37483;SDS011;23337;52.212;9.926;2023-07-22T08:28:29;12.83;;;9.23;;
37483;SDS011;23337;52.212;9.926;2023-07-22T08:30:56;10.90;;;8.70;;
37483;SDS011;23337;52.212;9.926;2023-07-22T08:33:22;15.03;;;10.20;;
37483;SDS011;23337;52.212;9.926;2023-07-22T08:35:50;12.50;;;9.90;;
37483;SDS011;23337;52.212;9.926;2023-07-22T08:38:16;13.40;;;9.20;;
37483;SDS011;23337;52.212;9.926;2023-07-22T08:40:42;14.50;;;10.60;;
37483;SDS011;23337;52.212;9.926;2023-07-22T08:43:09;13.37;;;10.50;;
37483;SDS011;23337;52.212;9.926;2023-07-22T08:45:36;14.27;;;10.73;;
37483;SDS011;23337;52.212;9.926;2023-07-22T08:48:03;14.07;;;11.40;;
37483;SDS011;23337;52.212;9.926;2023-07-22T08:50:33;14.20;;;10.70;;
37483;SDS011;23337;52.212;9.926;2023-07-22T08:53:00;13.20;;;10.33;;
37483;SDS011;23337;52.212;9.926;2023-07-22T08:55:27;14.63;;;10.63;;
37483;SDS011;23337;52.212;9.926;2023-07-22T08:57:53;13.33;;;11.37;;
37483;SDS011;23337;52.212;9.926;2023-07-22T09:00:19;13.00;;;11.53;;
37483;SDS011;23337;52.212;9.926;2023-07-22T09:02:45;15.70;;;10.63;;
37483;SDS011;23337;52.212;9.926;2023-07-22T09:05:11;13.90;;;10.63;;
37483;SDS011;23337;52.212;9.926;2023-07-22T09:07:37;12.67;;;10.90;;
37483;SDS011;23337;52.212;9.926;2023-07-22T09:10:04;15.00;;;12.07;;
37483;SDS011;23337;52.212;9.926;2023-07-22T09:12:30;18.17;;;12.10;;
37483;SDS011;23337;52.212;9.926;2023-07-22T09:14:57;13.50;;;10.67;;
37483;SDS011;23337;52.212;9.926;2023-07-22T09:17:23;14.73;;;10.47;;
37483;SDS011;23337;52.212;9.926;2023-07-22T09:19:52;13.43;;;10.50;;
37483;SDS011;23337;52.212;9.926;2023-07-22T09:22:24;13.10;;;10.03;;
37483;SDS011;23337;52.212;9.926;2023-07-22T09:24:50;14.43;;;10.13;;
37483;SDS011;23337;52.212;9.926;2023-07-22T09:27:18;12.27;;;9.53;;
37483;SDS011;23337;52.212;9.926;2023-07-22T09:29:58;12.67;;;9.77;;
37483;SDS011;23337;52.212;9.926;2023-07-22T09:32:36;10.40;;;7.97;;
37483;SDS011;23337;52.212;9.926;2023-07-22T09:35:03;10.07;;;7.67;;
37483;SDS011;23337;52.212;9.926;2023-07-22T09:37:38;9.63;;;8.63;;
37483;SDS011;23337;52.212;9.926;2023-07-22T09:40:20;11.00;;;7.87;;
37483;SDS011;23337;52.212;9.926;2023-07-22T09:42:47;10.23;;;7.67;;
37483;SDS011;23337;52.212;9.926;2023-07-22T09:45:13;7.20;;;6.47;;
37483;SDS011;23337;52.212;9.926;2023-07-22T09:47:40;10.60;;;6.20;;
37483;SDS011;23337;52.212;9.926;2023-07-22T09:50:06;9.37;;;6.53;;
37483;SDS011;23337;52.212;9.926;2023-07-22T09:52:32;8.13;;;6.60;;
37483;SDS011;23337;52.212;9.926;2023-07-22T09:54:58;6.70;;;5.90;;
37483;SDS011;23337;52.212;9.926;2023-07-22T09:59:53;7.73;;;6.77;;
37483;SDS011;23337;52.212;9.926;2023-07-22T10:02:19;7.80;;;5.90;;
37483;SDS011;23337;52.212;9.926;2023-07-22T10:04:47;8.30;;;6.33;;
37483;SDS011;23337;52.212;9.926;2023-07-22T10:07:15;10.30;;;5.60;;
37483;SDS011;23337;52.212;9.926;2023-07-22T10:09:41;8.43;;;6.33;;
37483;SDS011;23337;52.212;9.926;2023-07-22T10:12:07;7.13;;;5.83;;
37483;SDS011;23337;52.212;9.926;2023-07-22T10:14:34;7.10;;;5.83;;
37483;SDS011;23337;52.212;9.926;2023-07-22T10:17:01;8.77;;;6.90;;
37483;SDS011;23337;52.212;9.926;2023-07-22T10:19:28;7.13;;;5.63;;
37483;SDS011;23337;52.212;9.926;2023-07-22T10:21:54;6.63;;;5.80;;
37483;SDS011;23337;52.212;9.926;2023-07-22T10:24:20;8.50;;;5.73;;
37483;SDS011;23337;52.212;9.926;2023-07-22T10:26:47;5.63;;;4.90;;
37483;SDS011;23337;52.212;9.926;2023-07-22T10:29:16;7.93;;;5.73;;
37483;SDS011;23337;52.212;9.926;2023-07-22T10:31:42;7.03;;;5.13;;
37483;SDS011;23337;52.212;9.926;2023-07-22T10:34:08;7.10;;;5.03;;
37483;SDS011;23337;52.212;9.926;2023-07-22T10:36:34;7.77;;;6.70;;
37483;SDS011;23337;52.212;9.926;2023-07-22T10:39:01;7.50;;;6.77;;
37483;SDS011;23337;52.212;9.926;2023-07-22T10:41:27;7.27;;;6.17;;
37483;SDS011;23337;52.212;9.926;2023-07-22T10:43:55;7.57;;;5.93;;
37483;SDS011;23337;52.212;9.926;2023-07-22T10:46:31;8.37;;;7.40;;
37483;SDS011;23337;52.212;9.926;2023-07-22T10:49:11;7.73;;;4.90;;
37483;SDS011;23337;52.212;9.926;2023-07-22T10:51:37;6.17;;;5.00;;
37483;SDS011;23337;52.212;9.926;2023-07-22T10:54:10;6.53;;;5.53;;
37483;SDS011;23337;52.212;9.926;2023-07-22T10:56:36;7.77;;;6.47;;
37483;SDS011;23337;52.212;9.926;2023-07-22T10:59:02;6.50;;;5.17;;
37483;SDS011;23337;52.212;9.926;2023-07-22T11:09:56;7.37;;;5.33;;
37483;SDS011;23337;52.212;9.926;2023-07-22T11:14:28;5.83;;;5.30;;
37483;SDS011;23337;52.212;9.926;2023-07-22T11:16:56;4.20;;;3.83;;
37483;SDS011;23337;52.212;9.926;2023-07-22T11:19:23;7.27;;;5.80;;
37483;SDS011;23337;52.212;9.926;2023-07-22T11:21:50;6.97;;;5.30;;
37483;SDS011;23337;52.212;9.926;2023-07-22T11:24:17;5.80;;;4.00;;
37483;SDS011;23337;52.212;9.926;2023-07-22T11:26:44;6.43;;;4.87;;
37483;SDS011;23337;52.212;9.926;2023-07-22T11:29:10;5.00;;;4.53;;
37483;SDS011;23337;52.212;9.926;2023-07-22T11:31:38;4.73;;;4.23;;
37483;SDS011;23337;52.212;9.926;2023-07-22T11:34:07;6.10;;;5.17;;
37483;SDS011;23337;52.212;9.926;2023-07-22T11:36:33;6.60;;;5.07;;
37483;SDS011;23337;52.212;9.926;2023-07-22T11:39:11;9.30;;;5.30;;
37483;SDS011;23337;52.212;9.926;2023-07-22T11:41:38;5.90;;;4.77;;
37483;SDS011;23337;52.212;9.926;2023-07-22T11:44:06;5.03;;;4.23;;
37483;SDS011;23337;52.212;9.926;2023-07-22T11:46:34;7.43;;;4.77;;
37483;SDS011;23337;52.212;9.926;2023-07-22T11:49:01;9.00;;;5.27;;
37483;SDS011;23337;52.212;9.926;2023-07-22T11:51:27;6.20;;;5.57;;
37483;SDS011;23337;52.212;9.926;2023-07-22T11:53:53;6.17;;;4.80;;
37483;SDS011;23337;52.212;9.926;2023-07-22T11:56:23;5.90;;;5.07;;
37483;SDS011;23337;52.212;9.926;2023-07-22T11:58:50;5.17;;;4.67;;
37483;SDS011;23337;52.212;9.926;2023-07-22T12:01:16;5.40;;;4.80;;
37483;SDS011;23337;52.212;9.926;2023-07-22T12:03:42;6.60;;;4.87;;
37483;SDS011;23337;52.212;9.926;2023-07-22T12:06:08;4.60;;;4.20;;
37483;SDS011;23337;52.212;9.926;2023-07-22T12:08:35;5.37;;;4.77;;
37483;SDS011;23337;52.212;9.926;2023-07-22T12:11:01;4.30;;;3.90;;
37483;SDS011;23337;52.212;9.926;2023-07-22T12:13:28;4.80;;;3.80;;
37483;SDS011;23337;52.212;9.926;2023-07-22T12:16:01;4.23;;;3.70;;
37483;SDS011;23337;52.212;9.926;2023-07-22T12:18:28;4.73;;;4.30;;
37483;SDS011;23337;52.212;9.926;2023-07-22T12:20:54;5.90;;;4.10;;
37483;SDS011;23337;52.212;9.926;2023-07-22T12:23:20;5.53;;;4.77;;
37483;SDS011;23337;52.212;9.926;2023-07-22T12:25:47;4.30;;;3.90;;
37483;SDS011;23337;52.212;9.926;2023-07-22T12:28:14;4.70;;;4.20;;
37483;SDS011;23337;52.212;9.926;2023-07-22T12:30:40;5.23;;;4.47;;
37483;SDS011;23337;52.212;9.926;2023-07-22T12:33:06;4.60;;;3.33;;
37483;SDS011;23337;52.212;9.926;2023-07-22T12:35:32;5.57;;;3.63;;
37483;SDS011;23337;52.212;9.926;2023-07-22T12:37:58;4.33;;;3.93;;
37483;SDS011;23337;52.212;9.926;2023-07-22T12:40:24;4.10;;;3.63;;
37483;SDS011;23337;52.212;9.926;2023-07-22T12:42:50;5.00;;;4.47;;
37483;SDS011;23337;52.212;9.926;2023-07-22T12:45:16;4.50;;;4.00;;
37483;SDS011;23337;52.212;9.926;2023-07-22T12:47:41;5.23;;;4.77;;
37483;SDS011;23337;52.212;9.926;2023-07-22T12:50:08;4.33;;;3.63;;
37483;SDS011;23337;52.212;9.926;2023-07-22T12:52:34;4.40;;;4.00;;
37483;SDS011;23337;52.212;9.926;2023-07-22T12:54:59;6.57;;;4.90;;
37483;SDS011;23337;52.212;9.926;2023-07-22T12:57:25;6.47;;;4.40;;
37483;SDS011;23337;52.212;9.926;2023-07-22T12:59:51;5.83;;;4.60;;
37483;SDS011;23337;52.212;9.926;2023-07-22T13:02:17;5.33;;;4.33;;
37483;SDS011;23337;52.212;9.926;2023-07-22T13:04:43;4.87;;;4.13;;
37483;SDS011;23337;52.212;9.926;2023-07-22T13:07:09;6.13;;;5.37;;
37483;SDS011;23337;52.212;9.926;2023-07-22T13:09:38;5.77;;;5.17;;
37483;SDS011;23337;52.212;9.926;2023-07-22T13:12:08;5.90;;;5.30;;
37483;SDS011;23337;52.212;9.926;2023-07-22T13:14:34;5.63;;;5.03;;
37483;SDS011;23337;52.212;9.926;2023-07-22T13:17:00;5.80;;;5.17;;
37483;SDS011;23337;52.212;9.926;2023-07-22T13:19:26;6.20;;;5.30;;
37483;SDS011;23337;52.212;9.926;2023-07-22T13:21:52;6.07;;;5.00;;
37483;SDS011;23337;52.212;9.926;2023-07-22T13:24:18;5.73;;;4.97;;
37483;SDS011;23337;52.212;9.926;2023-07-22T13:26:44;5.30;;;4.83;;
37483;SDS011;23337;52.212;9.926;2023-07-22T13:29:10;6.80;;;4.83;;
37483;SDS011;23337;52.212;9.926;2023-07-22T13:31:36;5.77;;;5.27;;
37483;SDS011;23337;52.212;9.926;2023-07-22T13:34:01;5.53;;;4.70;;
37483;SDS011;23337;52.212;9.926;2023-07-22T13:36:27;7.40;;;4.93;;
37483;SDS011;23337;52.212;9.926;2023-07-22T13:38:53;7.03;;;6.10;;
37483;SDS011;23337;52.212;9.926;2023-07-22T13:41:19;6.47;;;5.40;;
37483;SDS011;23337;52.212;9.926;2023-07-22T13:43:45;5.37;;;4.87;;
37483;SDS011;23337;52.212;9.926;2023-07-22T13:46:11;7.30;;;5.07;;
37483;SDS011;23337;52.212;9.926;2023-07-22T13:48:37;6.23;;;4.93;;
37483;SDS011;23337;52.212;9.926;2023-07-22T13:51:03;6.57;;;5.13;;
37483;SDS011;23337;52.212;9.926;2023-07-22T13:53:29;5.83;;;5.30;;
37483;SDS011;23337;52.212;9.926;2023-07-22T13:55:55;5.30;;;4.77;;
37483;SDS011;23337;52.212;9.926;2023-07-22T13:58:21;6.23;;;4.80;;
37483;SDS011;23337;52.212;9.926;2023-07-22T14:00:47;7.83;;;5.23;;
37483;SDS011;23337;52.212;9.926;2023-07-22T14:03:13;6.67;;;4.80;;
37483;SDS011;23337;52.212;9.926;2023-07-22T14:05:39;6.03;;;5.53;;
37483;SDS011;23337;52.212;9.926;2023-07-22T14:08:05;5.83;;;4.37;;
37483;SDS011;23337;52.212;9.926;2023-07-22T14:10:31;5.27;;;4.73;;
37483;SDS011;23337;52.212;9.926;2023-07-22T14:12:57;7.37;;;5.20;;
37483;SDS011;23337;52.212;9.926;2023-07-22T14:15:23;7.60;;;5.00;;
37483;SDS011;23337;52.212;9.926;2023-07-22T14:17:49;6.10;;;5.20;;
37483;SDS011;23337;52.212;9.926;2023-07-22T14:20:15;5.50;;;4.93;;
37483;SDS011;23337;52.212;9.926;2023-07-22T14:22:41;5.17;;;4.33;;
37483;SDS011;23337;52.212;9.926;2023-07-22T14:25:10;5.60;;;5.10;;
37483;SDS011;23337;52.212;9.926;2023-07-22T14:27:37;4.73;;;4.23;;
37483;SDS011;23337;52.212;9.926;2023-07-22T14:30:04;5.40;;;4.40;;
37483;SDS011;23337;52.212;9.926;2023-07-22T14:32:30;5.70;;;5.20;;
37483;SDS011;23337;52.212;9.926;2023-07-22T14:34:56;5.20;;;4.70;;
37483;SDS011;23337;52.212;9.926;2023-07-22T14:37:22;6.07;;;5.50;;
37483;SDS011;23337;52.212;9.926;2023-07-22T14:39:49;4.90;;;4.30;;
37483;SDS011;23337;52.212;9.926;2023-07-22T14:42:15;5.13;;;4.63;;
37483;SDS011;23337;52.212;9.926;2023-07-22T14:44:41;4.17;;;3.83;;
37483;SDS011;23337;52.212;9.926;2023-07-22T14:47:07;4.57;;;4.17;;
37483;SDS011;23337;52.212;9.926;2023-07-22T14:49:32;4.90;;;4.50;;